createdAt,value
2018-04-11T00:00:54.465Z,15.02
2018-04-11T00:01:54.362Z,14.99
2018-04-11T00:02:54.270Z,15.15
2018-04-11T00:03:54.172Z,15.19
2018-04-11T00:04:54.076Z,15.25
2018-04-11T00:05:53.974Z,15.27
2018-04-11T00:06:54.132Z,15.25
2018-04-11T00:07:53.780Z,15.17
2018-04-11T00:08:53.688Z,15.15
2018-04-11T00:09:53.597Z,15.17
2018-04-11T00:10:53.494Z,15.07
2018-04-11T00:11:53.395Z,15.10
2018-04-11T00:12:53.301Z,15.10
2018-04-11T00:13:53.209Z,15.09
2018-04-11T00:14:53.108Z,15.06
2018-04-11T00:15:53.017Z,15.04
2018-04-11T00:16:52.913Z,15.00
2018-04-11T00:17:52.826Z,15.06
2018-04-11T00:18:52.721Z,15.03
2018-04-11T00:19:52.630Z,15.00
2018-04-11T00:20:52.541Z,15.02
2018-04-11T00:21:52.437Z,14.86
2018-04-11T00:22:52.346Z,14.99
2018-04-11T00:23:52.243Z,14.86
2018-04-11T00:24:52.152Z,14.88
2018-04-11T00:25:52.049Z,14.96
2018-04-11T00:26:51.966Z,14.91
2018-04-11T00:27:51.855Z,14.92
2018-04-11T00:28:51.764Z,14.89
2018-04-11T00:29:51.660Z,14.88
2018-04-11T00:30:51.568Z,14.79
2018-04-11T00:31:51.476Z,14.72
2018-04-11T00:32:51.372Z,14.68
2018-04-11T00:33:51.281Z,14.59
2018-04-11T00:34:51.177Z,14.53
2018-04-11T00:35:51.086Z,14.45
2018-04-11T00:36:50.982Z,14.44
2018-04-11T00:37:50.891Z,14.44
2018-04-11T00:38:50.787Z,14.36
2018-04-11T00:39:50.695Z,14.36
2018-04-11T00:40:50.593Z,14.26
2018-04-11T00:41:50.503Z,14.17
2018-04-11T00:42:50.399Z,14.15
2018-04-11T00:43:50.308Z,14.25
2018-04-11T00:44:50.217Z,14.22
2018-04-11T00:45:50.117Z,14.20
2018-04-11T00:46:50.023Z,14.26
2018-04-11T00:47:49.935Z,14.26
2018-04-11T00:48:49.832Z,14.32
2018-04-11T00:49:49.726Z,14.30
2018-04-11T00:50:49.635Z,14.36
2018-04-11T00:51:49.533Z,14.33
2018-04-11T00:52:49.445Z,14.32
2018-04-11T00:53:49.338Z,14.30
2018-04-11T00:54:49.246Z,14.36
2018-04-11T00:55:49.143Z,14.30
2018-04-11T00:56:49.052Z,14.32
2018-04-11T00:57:48.949Z,14.40
2018-04-11T00:58:48.858Z,14.35
2018-04-11T00:59:48.767Z,14.45
2018-04-11T01:00:48.662Z,14.37
2018-04-11T01:01:48.565Z,14.37
2018-04-11T01:02:48.468Z,14.37
2018-04-11T01:03:48.370Z,14.41
2018-04-11T01:04:48.275Z,14.28
2018-04-11T01:05:48.170Z,14.40
2018-04-11T01:06:48.079Z,14.36
2018-04-11T01:07:47.998Z,14.44
2018-04-11T01:08:47.885Z,14.44
2018-04-11T01:09:47.782Z,14.60
2018-04-11T01:10:47.690Z,14.59
2018-04-11T01:11:47.587Z,14.73
2018-04-11T01:12:47.497Z,14.78
2018-04-11T01:13:47.394Z,14.72
2018-04-11T01:14:47.301Z,14.77
2018-04-11T01:15:47.198Z,14.79
2018-04-11T01:16:47.109Z,14.73
2018-04-11T01:17:47.005Z,14.72
2018-04-11T01:18:46.913Z,14.70
2018-04-11T01:19:46.811Z,14.79
2018-04-11T01:20:46.720Z,14.70
2018-04-11T01:21:46.617Z,14.82
2018-04-11T01:22:46.529Z,14.81
2018-04-11T01:23:46.423Z,14.78
2018-04-11T01:24:46.332Z,14.78
2018-04-11T01:25:46.228Z,14.81
2018-04-11T01:26:46.138Z,14.79
2018-04-11T01:27:46.033Z,14.82
2018-04-11T01:28:45.944Z,14.70
2018-04-11T01:29:45.841Z,14.63
2018-04-11T01:30:45.764Z,14.59
2018-04-11T01:31:45.646Z,14.69
2018-04-11T01:32:45.559Z,14.60
2018-04-11T01:33:45.452Z,14.66
2018-04-11T01:34:45.360Z,14.73
2018-04-11T01:35:45.271Z,14.54
2018-04-11T01:36:45.167Z,14.60
2018-04-11T01:37:45.063Z,14.69
2018-04-11T01:38:44.972Z,14.69
2018-04-11T01:39:44.869Z,14.81
2018-04-11T01:40:44.777Z,14.82
2018-04-11T01:41:44.676Z,14.79
2018-04-11T01:42:44.574Z,14.78
2018-04-11T01:43:44.480Z,14.78
2018-04-11T01:44:44.378Z,14.78
2018-04-11T01:45:44.286Z,14.78
2018-04-11T01:46:44.183Z,14.72
2018-04-11T01:47:44.091Z,14.59
2018-04-11T01:48:43.990Z,14.58
2018-04-11T01:49:43.898Z,14.62
2018-04-11T01:50:43.795Z,14.50
2018-04-11T01:51:43.708Z,14.51
2018-04-11T01:52:43.601Z,14.55
2018-04-11T01:53:43.511Z,14.53
2018-04-11T01:54:43.408Z,14.60
2018-04-11T01:55:43.316Z,14.45
2018-04-11T01:56:43.212Z,14.44
2018-04-11T01:57:43.122Z,14.43
2018-04-11T01:58:43.020Z,14.48
2018-04-11T01:59:42.930Z,14.47
2018-04-11T02:00:42.825Z,14.43
2018-04-11T02:01:42.735Z,14.50
2018-04-11T02:02:42.632Z,14.41
2018-04-11T02:03:42.540Z,14.36
2018-04-11T02:04:42.437Z,14.36
2018-04-11T02:05:42.347Z,14.40
2018-04-11T02:06:42.244Z,14.37
2018-04-11T02:07:42.157Z,14.28
2018-04-11T02:08:42.053Z,14.26
2018-04-11T02:09:41.987Z,14.28
2018-04-11T02:10:41.856Z,14.23
2018-04-11T02:11:41.777Z,14.26
2018-04-11T02:12:41.661Z,14.14
2018-04-11T02:13:41.559Z,14.10
2018-04-11T02:14:41.467Z,14.10
2018-04-11T02:15:41.376Z,14.07
2018-04-11T02:16:41.271Z,14.03
2018-04-11T02:17:41.169Z,14.07
2018-04-11T02:18:41.080Z,14.10
2018-04-11T02:19:40.975Z,14.05
2018-04-11T02:20:40.883Z,13.99
2018-04-11T02:21:40.884Z,14.04
2018-04-11T02:22:40.690Z,14.04
2018-04-11T02:23:40.591Z,13.96
2018-04-11T02:24:40.494Z,14.00
2018-04-11T02:25:40.392Z,14.04
2018-04-11T02:26:40.301Z,14.04
2018-04-11T02:27:40.198Z,13.92
2018-04-11T02:28:40.107Z,13.93
2018-04-11T02:29:40.008Z,14.00
2018-04-11T02:30:39.913Z,14.04
2018-04-11T02:31:39.816Z,14.03
2018-04-11T02:32:39.721Z,14.03
2018-04-11T02:33:39.617Z,13.92
2018-04-11T02:34:39.526Z,13.96
2018-04-11T02:35:39.423Z,13.87
2018-04-11T02:36:39.331Z,13.85
2018-04-11T02:37:39.228Z,13.92
2018-04-11T02:38:39.125Z,13.83
2018-04-11T02:39:39.035Z,13.97
2018-04-11T02:40:38.930Z,13.86
2018-04-11T02:41:38.840Z,13.83
2018-04-11T02:42:38.736Z,13.93
2018-04-11T02:43:38.647Z,13.89
2018-04-11T02:44:38.543Z,13.83
2018-04-11T02:45:38.452Z,13.81
2018-04-11T02:46:38.360Z,13.75
2018-04-11T02:47:38.257Z,13.63
2018-04-11T02:48:38.153Z,13.59
2018-04-11T02:49:38.062Z,13.62
2018-04-11T02:50:37.959Z,13.47
2018-04-11T02:51:37.869Z,13.46
2018-04-11T02:52:37.765Z,13.41
2018-04-11T02:53:37.661Z,13.42
2018-04-11T02:54:37.572Z,13.22
2018-04-11T02:55:37.467Z,13.31
2018-04-11T02:56:37.376Z,13.19
2018-04-11T02:57:37.273Z,13.15
2018-04-11T02:58:37.181Z,13.08
2018-04-11T02:59:37.078Z,13.01
2018-04-11T03:00:36.991Z,12.95
2018-04-11T03:01:36.885Z,12.93
2018-04-11T03:02:36.795Z,12.91
2018-04-11T03:03:36.690Z,12.87
2018-04-11T03:04:36.601Z,12.70
2018-04-11T03:05:36.497Z,12.70
2018-04-11T03:06:36.408Z,12.73
2018-04-11T03:07:36.302Z,12.76
2018-04-11T03:08:36.200Z,12.73
2018-04-11T03:09:36.108Z,12.55
2018-04-11T03:10:36.006Z,12.64
2018-04-11T03:11:36.164Z,12.64
2018-04-11T03:12:35.815Z,12.67
2018-04-11T03:13:35.720Z,12.60
2018-04-11T03:14:35.620Z,12.61
2018-04-11T03:15:35.527Z,12.61
2018-04-11T03:16:35.423Z,12.58
2018-04-11T03:17:35.321Z,12.72
2018-04-11T03:18:35.230Z,12.60
2018-04-11T03:19:35.127Z,12.62
2018-04-11T03:20:35.035Z,12.72
2018-04-11T03:21:34.931Z,12.73
2018-04-11T03:22:34.841Z,12.72
2018-04-11T03:23:34.737Z,12.73
2018-04-11T03:24:34.645Z,12.73
2018-04-11T03:25:34.541Z,12.75
2018-04-11T03:26:34.439Z,12.72
2018-04-11T03:27:34.349Z,12.67
2018-04-11T03:28:34.245Z,12.75
2018-04-11T03:29:34.154Z,12.67
2018-04-11T03:30:34.050Z,12.68
2018-04-11T03:31:33.960Z,12.67
2018-04-11T03:32:33.859Z,12.73
2018-04-11T03:33:33.818Z,12.76
2018-04-11T03:34:33.660Z,12.73
2018-04-11T03:35:33.559Z,12.86
2018-04-11T03:36:33.469Z,12.78
2018-04-11T03:37:33.365Z,12.85
2018-04-11T03:38:33.273Z,12.82
2018-04-11T03:39:33.174Z,12.87
2018-04-11T03:40:33.080Z,12.87
2018-04-11T03:41:32.977Z,12.80
2018-04-11T03:42:32.885Z,12.82
2018-04-11T03:43:32.784Z,12.90
2018-04-11T03:44:32.682Z,12.95
2018-04-11T03:45:32.589Z,12.91
2018-04-11T03:46:32.486Z,12.94
2018-04-11T03:47:32.398Z,12.95
2018-04-11T03:48:32.290Z,12.97
2018-04-11T03:49:32.201Z,12.98
2018-04-11T03:50:32.098Z,12.98
2018-04-11T03:51:32.006Z,13.00
2018-04-11T03:52:31.902Z,13.00
2018-04-11T03:53:31.800Z,13.08
2018-04-11T03:54:31.709Z,13.00
2018-04-11T03:55:31.605Z,13.05
2018-04-11T03:56:31.514Z,13.04
2018-04-11T03:57:31.410Z,13.08
2018-04-11T03:58:31.319Z,13.00
2018-04-11T03:59:31.218Z,13.01
2018-04-11T04:00:31.126Z,13.09
2018-04-11T04:01:31.022Z,13.11
2018-04-11T04:02:30.920Z,13.08
2018-04-11T04:03:30.829Z,13.04
2018-04-11T04:04:30.725Z,13.12
2018-04-11T04:05:30.633Z,13.04
2018-04-11T04:06:30.533Z,13.08
2018-04-11T04:07:30.441Z,13.09
2018-04-11T04:08:30.337Z,13.13
2018-04-11T04:09:30.234Z,13.05
2018-04-11T04:10:30.155Z,13.15
2018-04-11T04:11:30.040Z,13.12
2018-04-11T04:12:29.951Z,13.09
2018-04-11T04:13:29.849Z,13.03
2018-04-11T04:14:29.754Z,13.05
2018-04-11T04:15:29.650Z,13.03
2018-04-11T04:16:29.560Z,13.05
2018-04-11T04:17:29.457Z,13.05
2018-04-11T04:18:29.353Z,12.98
2018-04-11T04:19:29.262Z,13.09
2018-04-11T04:20:29.159Z,13.03
2018-04-11T04:21:29.069Z,13.08
2018-04-11T04:22:28.966Z,13.00
2018-04-11T04:23:28.874Z,13.01
2018-04-11T04:24:28.771Z,12.97
2018-04-11T04:25:28.669Z,13.00
2018-04-11T04:26:28.578Z,12.98
2018-04-11T04:27:28.474Z,13.00
2018-04-11T04:28:28.382Z,12.97
2018-04-11T04:29:28.279Z,13.00
2018-04-11T04:30:28.188Z,12.98
2018-04-11T04:31:28.085Z,12.98
2018-04-11T04:32:27.993Z,12.95
2018-04-11T04:33:27.890Z,12.98
2018-04-11T04:34:27.787Z,12.94
2018-04-11T04:35:27.696Z,12.97
2018-04-11T04:36:27.843Z,12.95
2018-04-11T04:37:27.502Z,12.98
2018-04-11T04:38:27.401Z,12.95
2018-04-11T04:39:27.296Z,12.93
2018-04-11T04:40:27.205Z,13.03
2018-04-11T04:41:27.105Z,12.97
2018-04-11T04:42:27.010Z,12.94
2018-04-11T04:43:26.906Z,12.98
2018-04-11T04:44:26.816Z,12.94
2018-04-11T04:45:26.714Z,12.91
2018-04-11T04:46:26.610Z,12.98
2018-04-11T04:47:26.518Z,12.94
2018-04-11T04:48:26.415Z,12.97
2018-04-11T04:49:26.326Z,12.95
2018-04-11T04:50:26.222Z,12.98
2018-04-11T04:51:26.130Z,12.95
2018-04-11T04:52:26.027Z,13.03
2018-04-11T04:53:25.926Z,13.05
2018-04-11T04:54:25.833Z,13.03
2018-04-11T04:55:25.729Z,13.03
2018-04-11T04:56:25.638Z,13.09
2018-04-11T04:57:25.537Z,13.00
2018-04-11T04:58:25.445Z,12.97
2018-04-11T04:59:25.344Z,12.95
2018-04-11T05:00:25.254Z,12.97
2018-04-11T05:01:25.149Z,13.00
2018-04-11T05:02:25.046Z,12.97
2018-04-11T05:03:24.953Z,12.98
2018-04-11T05:04:24.852Z,13.00
2018-04-11T05:05:24.758Z,12.95
2018-04-11T05:06:24.654Z,12.97
2018-04-11T05:07:24.565Z,12.98
2018-04-11T05:08:24.461Z,12.98
2018-04-11T05:09:24.358Z,12.95
2018-04-11T05:10:24.266Z,12.95
2018-04-11T05:11:24.163Z,12.98
2018-04-11T05:12:24.076Z,12.94
2018-04-11T05:13:23.972Z,12.95
2018-04-11T05:14:23.878Z,12.95
2018-04-11T05:15:23.777Z,12.91
2018-04-11T05:16:23.673Z,12.93
2018-04-11T05:17:23.584Z,12.93
2018-04-11T05:18:23.479Z,12.73
2018-04-11T05:19:23.386Z,12.78
2018-04-11T05:20:23.299Z,12.75
2018-04-11T05:21:23.193Z,12.75
2018-04-11T05:22:23.091Z,12.78
2018-04-11T05:23:22.987Z,12.80
2018-04-11T05:24:22.898Z,12.75
2018-04-11T05:25:22.791Z,12.73
2018-04-11T05:26:22.703Z,12.82
2018-04-11T05:27:22.598Z,12.90
2018-04-11T05:28:22.507Z,12.80
2018-04-11T05:29:22.402Z,12.86
2018-04-11T05:30:22.300Z,12.86
2018-04-11T05:31:22.212Z,12.78
2018-04-11T05:32:22.106Z,12.76
2018-04-11T05:33:22.016Z,12.94
2018-04-11T05:34:21.924Z,12.87
2018-04-11T05:35:21.818Z,12.82
2018-04-11T05:36:21.718Z,12.94
2018-04-11T05:37:21.615Z,12.90
2018-04-11T05:38:21.526Z,12.82
2018-04-11T05:39:21.419Z,12.80
2018-04-11T05:40:21.330Z,12.76
2018-04-11T05:41:21.225Z,12.75
2018-04-11T05:42:21.122Z,12.73
2018-04-11T05:43:21.031Z,12.75
2018-04-11T05:44:20.927Z,12.76
2018-04-11T05:45:20.837Z,12.75
2018-04-11T05:46:20.984Z,12.68
2018-04-11T05:47:20.643Z,12.65
2018-04-11T05:48:20.539Z,12.65
2018-04-11T05:49:20.437Z,12.65
2018-04-11T05:50:20.346Z,12.61
2018-04-11T05:51:20.242Z,12.50
2018-04-11T05:52:20.151Z,12.50
2018-04-11T05:53:20.058Z,12.54
2018-04-11T05:54:19.946Z,12.49
2018-04-11T05:55:19.854Z,12.49
2018-04-11T05:56:19.751Z,12.39
2018-04-11T05:57:19.660Z,12.49
2018-04-11T05:58:19.556Z,12.55
2018-04-11T05:59:19.453Z,12.47
2018-04-11T06:00:19.362Z,12.64
2018-04-11T06:01:19.264Z,12.73
2018-04-11T06:02:19.167Z,12.94
2018-04-11T06:03:19.065Z,13.08
2018-04-11T06:04:18.961Z,13.18
2018-04-11T06:05:18.872Z,13.27
2018-04-11T06:06:18.773Z,13.44
2018-04-11T06:07:18.680Z,13.71
2018-04-11T06:08:18.575Z,14.23
2018-04-11T06:09:18.470Z,14.25
2018-04-11T06:10:18.379Z,13.77
2018-04-11T06:11:18.276Z,13.59
2018-04-11T06:12:18.184Z,14.23
2018-04-11T06:13:18.081Z,14.08
2018-04-11T06:14:17.990Z,14.59
2018-04-11T06:15:17.887Z,15.07
2018-04-11T06:16:17.795Z,14.81
2018-04-11T06:17:17.693Z,15.04
2018-04-11T06:18:17.603Z,15.15
2018-04-11T06:19:17.500Z,15.02
2018-04-11T06:20:17.408Z,14.97
2018-04-11T06:21:17.303Z,15.25
2018-04-11T06:22:17.214Z,15.68
2018-04-11T06:23:17.111Z,15.68
2018-04-11T06:24:17.020Z,15.83
2018-04-11T06:25:16.917Z,15.55
2018-04-11T06:26:16.825Z,15.27
2018-04-11T06:27:16.734Z,15.39
2018-04-11T06:28:16.633Z,15.65
2018-04-11T06:29:16.543Z,15.49
2018-04-11T06:30:16.452Z,15.40
2018-04-11T06:31:16.349Z,15.22
2018-04-11T06:32:16.261Z,15.76
2018-04-11T06:33:16.164Z,16.09
2018-04-11T06:34:16.061Z,16.08
2018-04-11T06:35:15.971Z,16.31
2018-04-11T06:36:15.868Z,16.00
2018-04-11T06:37:15.780Z,15.86
2018-04-11T06:38:15.686Z,16.09
2018-04-11T06:39:15.583Z,16.21
2018-04-11T06:40:15.504Z,15.97
2018-04-11T06:41:15.400Z,16.26
2018-04-11T06:42:15.299Z,16.58
2018-04-11T06:43:15.206Z,16.32
2018-04-11T06:44:15.115Z,15.98
2018-04-11T06:45:15.025Z,15.91
2018-04-11T06:46:14.957Z,15.76
2018-04-11T06:47:14.840Z,15.68
2018-04-11T06:48:14.741Z,15.95
2018-04-11T06:49:14.637Z,16.31
2018-04-11T06:50:14.546Z,16.35
2018-04-11T06:51:14.453Z,16.39
2018-04-11T06:52:14.364Z,16.64
2018-04-11T06:53:14.261Z,16.84
2018-04-11T06:54:14.183Z,16.72
2018-04-11T06:55:14.114Z,17.08
2018-04-11T06:56:13.978Z,17.46
2018-04-11T06:57:13.885Z,17.02
2018-04-11T06:58:13.798Z,16.29
2018-04-11T06:59:13.706Z,16.15
2018-04-11T07:00:13.614Z,16.49
2018-04-11T07:01:13.509Z,17.16
2018-04-11T07:02:13.418Z,17.27
2018-04-11T07:03:13.328Z,17.19
2018-04-11T07:04:13.237Z,17.31
2018-04-11T07:05:13.147Z,17.15
2018-04-11T07:06:13.043Z,17.06
2018-04-11T07:07:12.950Z,17.26
2018-04-11T07:08:12.861Z,17.49
2018-04-11T07:09:12.769Z,17.49
2018-04-11T07:10:12.679Z,17.67
2018-04-11T07:11:12.601Z,17.97
2018-04-11T07:12:12.486Z,17.89
2018-04-11T07:13:12.395Z,18.00
2018-04-11T07:14:12.334Z,17.98
2018-04-11T07:15:12.212Z,17.68
2018-04-11T07:16:12.121Z,17.45
2018-04-11T07:17:12.031Z,17.02
2018-04-11T07:18:11.939Z,16.94
2018-04-11T07:19:11.849Z,16.83
2018-04-11T07:20:11.759Z,16.43
2018-04-11T07:21:11.670Z,16.32
2018-04-11T07:22:11.565Z,16.24
2018-04-11T07:23:11.473Z,16.21
2018-04-11T07:24:11.382Z,16.16
2018-04-11T07:25:11.305Z,16.01
2018-04-11T07:26:11.201Z,15.91
2018-04-11T07:27:11.109Z,15.88
2018-04-11T07:28:11.006Z,15.84
2018-04-11T07:29:10.915Z,15.88
2018-04-11T07:30:10.825Z,15.84
2018-04-11T07:31:10.735Z,15.82
2018-04-11T07:32:10.642Z,15.70
2018-04-11T07:33:10.539Z,15.72
2018-04-11T07:34:10.449Z,15.75
2018-04-11T07:35:10.358Z,15.83
2018-04-11T07:36:10.268Z,15.90
2018-04-11T07:37:10.168Z,15.83
2018-04-11T07:38:10.072Z,16.09
2018-04-11T07:39:09.985Z,15.95
2018-04-11T07:40:09.931Z,16.00
2018-04-11T07:41:09.788Z,16.09
2018-04-11T07:42:09.699Z,16.10
2018-04-11T07:43:09.608Z,16.15
2018-04-11T07:44:09.516Z,16.13
2018-04-11T07:45:09.412Z,16.29
2018-04-11T07:46:09.341Z,16.26
2018-04-11T07:47:09.234Z,16.31
2018-04-11T07:48:09.129Z,16.08
2018-04-11T07:49:09.036Z,16.12
2018-04-11T07:50:08.946Z,16.04
2018-04-11T07:51:08.842Z,16.00
2018-04-11T07:52:08.752Z,15.88
2018-04-11T07:53:08.661Z,16.01
2018-04-11T07:54:08.557Z,16.12
2018-04-11T07:55:08.466Z,16.09
2018-04-11T07:56:08.379Z,16.17
2018-04-11T07:57:08.272Z,16.29
2018-04-11T07:58:08.180Z,16.26
2018-04-11T07:59:08.091Z,16.29
2018-04-11T08:00:07.988Z,16.21
2018-04-11T08:01:07.899Z,16.31
2018-04-11T08:02:07.808Z,16.31
2018-04-11T08:03:07.784Z,16.41
2018-04-11T08:04:07.611Z,16.28
2018-04-11T08:05:07.522Z,16.28
2018-04-11T08:06:07.418Z,16.24
2018-04-11T08:07:07.326Z,16.32
2018-04-11T08:08:07.237Z,16.24
2018-04-11T08:09:07.145Z,16.33
2018-04-11T08:10:07.064Z,16.41
2018-04-11T08:11:06.954Z,16.51
2018-04-11T08:12:06.848Z,16.51
2018-04-11T08:13:06.759Z,16.56
2018-04-11T08:14:06.654Z,16.58
2018-04-11T08:15:06.570Z,16.61
2018-04-11T08:16:06.485Z,16.75
2018-04-11T08:17:06.368Z,16.68
2018-04-11T08:18:06.282Z,16.72
2018-04-11T08:19:06.190Z,16.83
2018-04-11T08:20:06.110Z,16.99
2018-04-11T08:21:05.993Z,17.01
2018-04-11T08:22:05.901Z,17.11
2018-04-11T08:23:05.799Z,17.19
2018-04-11T08:24:05.708Z,17.15
2018-04-11T08:25:05.616Z,17.05
2018-04-11T08:26:05.513Z,17.11
2018-04-11T08:27:05.424Z,17.02
2018-04-11T08:28:05.331Z,17.01
2018-04-11T08:29:05.231Z,17.06
2018-04-11T08:30:05.138Z,17.06
2018-04-11T08:31:05.047Z,16.93
2018-04-11T08:32:04.944Z,17.12
2018-04-11T08:33:04.853Z,17.15
2018-04-11T08:34:04.775Z,17.26
2018-04-11T08:35:04.658Z,17.44
2018-04-11T08:36:04.568Z,17.67
2018-04-11T08:37:04.477Z,17.89
2018-04-11T08:38:04.373Z,17.97
2018-04-11T08:39:04.278Z,18.08
2018-04-11T08:40:04.191Z,18.07
2018-04-11T08:41:04.089Z,17.92
2018-04-11T08:42:04.005Z,17.86
2018-04-11T08:43:03.906Z,17.94
2018-04-11T08:44:03.804Z,17.87
2018-04-11T08:45:03.714Z,17.90
2018-04-11T08:46:03.623Z,17.89
2018-04-11T08:47:03.532Z,18.10
2018-04-11T08:48:03.429Z,18.49
2018-04-11T08:49:03.338Z,18.45
2018-04-11T08:50:03.250Z,18.38
2018-04-11T08:51:03.168Z,18.11
2018-04-11T08:52:03.055Z,18.20
2018-04-11T08:53:02.966Z,18.25
2018-04-11T08:54:02.870Z,18.04
2018-04-11T08:55:02.784Z,17.97
2018-04-11T08:56:02.677Z,17.79
2018-04-11T08:57:02.585Z,17.56
2018-04-11T08:58:02.495Z,17.44
2018-04-11T08:59:02.403Z,17.36
2018-04-11T09:00:02.302Z,17.36
2018-04-11T09:01:02.210Z,17.46
2018-04-11T09:02:02.119Z,17.46
2018-04-11T09:03:02.029Z,17.49
2018-04-11T09:04:01.937Z,17.46
2018-04-11T09:05:01.836Z,17.51
2018-04-11T09:06:01.743Z,17.64
2018-04-11T09:07:01.658Z,17.86
2018-04-11T09:08:01.563Z,17.87
2018-04-11T09:09:01.467Z,17.87
2018-04-11T09:10:01.369Z,17.92
2018-04-11T09:11:01.278Z,17.92
2018-04-11T09:12:01.175Z,17.85
2018-04-11T09:13:01.086Z,17.87
2018-04-11T09:14:00.994Z,17.72
2018-04-11T09:15:00.900Z,17.78
2018-04-11T09:16:00.798Z,17.95
2018-04-11T09:17:00.712Z,17.82
2018-04-11T09:18:00.616Z,17.92
2018-04-11T09:19:00.526Z,17.86
2018-04-11T09:20:00.423Z,17.95
2018-04-11T09:21:00.331Z,17.90
2018-04-11T09:22:00.240Z,17.97
2018-04-11T09:23:00.149Z,18.10
2018-04-11T09:24:00.046Z,18.08
2018-04-11T09:24:59.956Z,18.11
2018-04-11T09:25:59.864Z,18.15
2018-04-11T09:26:59.762Z,17.97
2018-04-11T09:27:59.670Z,18.04
2018-04-11T09:28:59.579Z,18.13
2018-04-11T09:29:59.488Z,18.23
2018-04-11T09:30:59.390Z,18.31
2018-04-11T09:31:59.302Z,18.22
2018-04-11T09:32:59.223Z,18.31
2018-04-11T09:33:59.113Z,18.75
2018-04-11T09:34:59.009Z,19.09
2018-04-11T09:35:58.922Z,19.47
2018-04-11T09:36:58.827Z,19.86
2018-04-11T09:37:58.737Z,20.44
2018-04-11T09:38:58.633Z,20.72
2018-04-11T09:39:58.544Z,21.30
2018-04-11T09:40:58.456Z,21.36
2018-04-11T09:41:58.410Z,20.70
2018-04-11T09:42:58.271Z,21.25
2018-04-11T09:43:58.181Z,21.33
2018-04-11T09:44:58.076Z,21.66
2018-04-11T09:45:57.986Z,22.25
2018-04-11T09:46:57.897Z,22.11
2018-04-11T09:47:57.806Z,21.64
2018-04-11T09:48:57.713Z,21.20
2018-04-11T09:49:57.623Z,20.90
2018-04-11T09:50:57.544Z,20.93
2018-04-11T09:51:57.506Z,20.78
2018-04-11T09:52:57.363Z,20.32
2018-04-11T09:53:57.271Z,20.29
2018-04-11T09:54:57.181Z,20.31
2018-04-11T09:55:57.090Z,20.37
2018-04-11T09:56:57.000Z,19.95
2018-04-11T09:57:56.908Z,19.76
2018-04-11T09:58:56.818Z,19.56
2018-04-11T09:59:56.726Z,19.48
2018-04-11T10:00:56.641Z,19.40
2018-04-11T10:01:56.545Z,19.18
2018-04-11T10:02:56.454Z,19.19
2018-04-11T10:03:56.363Z,19.21
2018-04-11T10:04:56.278Z,19.18
2018-04-11T10:05:56.182Z,19.31
2018-04-11T10:06:56.100Z,19.19
2018-04-11T10:07:56.001Z,19.24
2018-04-11T10:08:55.910Z,19.29
2018-04-11T10:09:55.824Z,19.33
2018-04-11T10:10:55.717Z,19.33
2018-04-11T10:11:55.625Z,19.16
2018-04-11T10:12:55.533Z,19.16
2018-04-11T10:13:55.444Z,19.15
2018-04-11T10:14:55.353Z,19.15
2018-04-11T10:15:55.262Z,19.07
2018-04-11T10:16:55.170Z,19.19
2018-04-11T10:17:55.080Z,19.34
2018-04-11T10:18:54.990Z,19.02
2018-04-11T10:19:54.886Z,19.00
2018-04-11T10:20:54.795Z,19.02
2018-04-11T10:21:54.703Z,18.86
2018-04-11T10:22:54.616Z,18.75
2018-04-11T10:23:54.522Z,18.95
2018-04-11T10:24:54.494Z,19.04
2018-04-11T10:25:54.341Z,19.18
2018-04-11T10:26:54.237Z,19.34
2018-04-11T10:27:54.147Z,19.48
2018-04-11T10:28:54.056Z,19.58
2018-04-11T10:29:53.967Z,19.40
2018-04-11T10:30:53.874Z,19.39
2018-04-11T10:31:53.774Z,19.27
2018-04-11T10:32:53.680Z,19.41
2018-04-11T10:33:53.602Z,19.37
2018-04-11T10:34:53.498Z,19.44
2018-04-11T10:35:53.408Z,19.31
2018-04-11T10:36:53.317Z,19.39
2018-04-11T10:37:53.217Z,19.48
2018-04-11T10:38:53.122Z,19.45
2018-04-11T10:39:53.031Z,19.49
2018-04-11T10:40:52.941Z,19.48
2018-04-11T10:41:52.851Z,19.56
2018-04-11T10:42:52.761Z,19.47
2018-04-11T10:43:52.656Z,19.37
2018-04-11T10:44:52.565Z,19.31
2018-04-11T10:45:52.474Z,19.30
2018-04-11T10:46:52.384Z,19.31
2018-04-11T10:47:52.305Z,19.29
2018-04-11T10:48:52.202Z,19.02
2018-04-11T10:49:52.099Z,19.15
2018-04-11T10:50:52.007Z,19.15
2018-04-11T10:51:51.922Z,19.15
2018-04-11T10:52:51.859Z,19.04
2018-04-11T10:53:51.737Z,19.09
2018-04-11T10:54:51.646Z,19.14
2018-04-11T10:55:51.543Z,19.04
2018-04-11T10:56:51.451Z,19.15
2018-04-11T10:57:51.364Z,19.22
2018-04-11T10:58:51.270Z,19.21
2018-04-11T10:59:51.190Z,19.31
2018-04-11T11:00:51.111Z,19.36
2018-04-11T11:01:50.984Z,19.31
2018-04-11T11:02:50.893Z,19.26
2018-04-11T11:03:50.803Z,19.29
2018-04-11T11:04:50.711Z,19.21
2018-04-11T11:05:50.622Z,19.30
2018-04-11T11:06:50.530Z,19.40
2018-04-11T11:07:50.427Z,19.45
2018-04-11T11:08:50.337Z,19.39
2018-04-11T11:09:50.244Z,19.39
2018-04-11T11:10:50.154Z,19.36
2018-04-11T11:11:50.063Z,19.36
2018-04-11T11:12:49.971Z,19.58
2018-04-11T11:13:49.874Z,19.71
2018-04-11T11:14:49.777Z,19.91
2018-04-11T11:15:49.688Z,20.07
2018-04-11T11:16:49.597Z,20.06
2018-04-11T11:17:49.507Z,19.91
2018-04-11T11:18:49.414Z,19.91
2018-04-11T11:19:49.313Z,19.82
2018-04-11T11:20:49.221Z,19.71
2018-04-11T11:21:49.130Z,19.59
2018-04-11T11:22:49.091Z,19.51
2018-04-11T11:23:48.948Z,19.45
2018-04-11T11:24:48.859Z,19.55
2018-04-11T11:25:48.767Z,19.69
2018-04-11T11:26:48.665Z,19.59
2018-04-11T11:27:48.575Z,19.55
2018-04-11T11:28:48.496Z,19.48
2018-04-11T11:29:48.392Z,19.54
2018-04-11T11:30:48.299Z,19.54
2018-04-11T11:31:48.210Z,19.36
2018-04-11T11:32:48.132Z,19.40
2018-04-11T11:33:48.029Z,19.51
2018-04-11T11:34:47.925Z,19.58
2018-04-11T11:35:47.834Z,19.84
2018-04-11T11:36:47.743Z,20.07
2018-04-11T11:37:47.654Z,20.36
2018-04-11T11:38:47.600Z,20.41
2018-04-11T11:39:47.470Z,20.67
2018-04-11T11:40:47.379Z,20.26
2018-04-11T11:41:47.289Z,20.31
2018-04-11T11:42:47.187Z,19.88
2018-04-11T11:43:47.095Z,19.96
2018-04-11T11:44:47.005Z,20.09
2018-04-11T11:45:46.918Z,19.95
2018-04-11T11:46:46.821Z,19.81
2018-04-11T11:47:46.732Z,19.74
2018-04-11T11:48:46.640Z,19.70
2018-04-11T11:49:46.551Z,19.88
2018-04-11T11:50:46.458Z,19.89
2018-04-11T11:51:46.368Z,19.84
2018-04-11T11:52:46.265Z,19.95
2018-04-11T11:53:46.175Z,19.82
2018-04-11T11:54:46.084Z,19.66
2018-04-11T11:55:45.992Z,19.63
2018-04-11T11:56:45.903Z,19.74
2018-04-11T11:57:45.810Z,19.56
2018-04-11T11:58:45.721Z,19.54
2018-04-11T11:59:45.629Z,19.56
2018-04-11T12:00:45.539Z,19.36
2018-04-11T12:01:45.447Z,19.59
2018-04-11T12:02:45.348Z,19.66
2018-04-11T12:03:45.255Z,19.73
2018-04-11T12:04:45.162Z,19.54
2018-04-11T12:05:45.072Z,19.34
2018-04-11T12:06:44.980Z,19.37
2018-04-11T12:07:44.890Z,19.44
2018-04-11T12:08:44.799Z,19.52
2018-04-11T12:09:44.709Z,19.54
2018-04-11T12:10:44.608Z,19.54
2018-04-11T12:11:44.518Z,19.51
2018-04-11T12:12:44.424Z,19.56
2018-04-11T12:13:44.331Z,19.58
2018-04-11T12:14:44.242Z,19.44
2018-04-11T12:15:44.150Z,19.54
2018-04-11T12:16:44.064Z,19.58
2018-04-11T12:17:43.957Z,19.66
2018-04-11T12:18:43.867Z,19.77
2018-04-11T12:19:43.778Z,19.82
2018-04-11T12:20:43.684Z,19.74
2018-04-11T12:21:43.594Z,19.77
2018-04-11T12:22:43.506Z,19.54
2018-04-11T12:23:43.413Z,19.62
2018-04-11T12:24:43.309Z,19.48
2018-04-11T12:25:43.217Z,19.54
2018-04-11T12:26:43.128Z,19.40
2018-04-11T12:27:43.035Z,19.41
2018-04-11T12:28:42.946Z,19.37
2018-04-11T12:29:42.854Z,19.37
2018-04-11T12:30:42.765Z,19.40
2018-04-11T12:31:42.661Z,19.22
2018-04-11T12:32:42.568Z,19.45
2018-04-11T12:33:42.480Z,19.48
2018-04-11T12:34:42.388Z,19.59
2018-04-11T12:35:42.297Z,19.59
2018-04-11T12:36:42.205Z,19.59
2018-04-11T12:37:42.121Z,19.64
2018-04-11T12:38:42.013Z,19.56
2018-04-11T12:39:41.921Z,19.56
2018-04-11T12:40:41.831Z,19.79
2018-04-11T12:41:41.740Z,19.91
2018-04-11T12:42:41.649Z,19.95
2018-04-11T12:43:41.558Z,20.02
2018-04-11T12:44:41.459Z,19.95
2018-04-11T12:45:41.365Z,19.86
2018-04-11T12:46:41.273Z,19.88
2018-04-11T12:47:41.183Z,19.85
2018-04-11T12:48:41.091Z,19.63
2018-04-11T12:49:41.002Z,19.48
2018-04-11T12:50:40.910Z,19.52
2018-04-11T12:51:40.807Z,19.51